Time;durP1;ratioP1;P1;durP2;ratioP2;P2;SDS_P1;SDS_P2;PMS_P1;PMS_P2;Temp;Humidity;BMP_temperature;BMP_pressure;BME280_temperature;BME280_humidity;BME280_pressure;Samples;Min_cycle;Max_cycle;Signal;HPM_P1;HPM_P2
2023/01/01 00:01:28;;;;;;;23.00;17.57;;;17.00;78.50;;;;;;6146485;23;20406;-87
2023/01/01 00:04:22;;;;;;;21.50;16.70;;;17.10;78.40;;;;;;6111593;23;20431;-86
2023/01/01 00:06:55;;;;;;;21.33;16.37;;;17.10;78.00;;;;;;6109728;23;20487;-86
2023/01/01 00:12:10;;;;;;;14.87;12.03;;;17.00;77.90;;;;;;6128872;23;21231;-88
2023/01/01 00:14:43;;;;;;;19.07;12.73;;;17.00;77.80;;;;;;6127812;23;20522;-88
2023/01/01 00:17:18;;;;;;;16.00;14.07;;;16.80;78.40;;;;;;6107175;23;20879;-85
2023/01/01 00:19:49;;;;;;;12.90;9.60;;;16.80;78.40;;;;;;6082804;23;20439;-86
2023/01/01 00:22:21;;;;;;;11.40;9.20;;;16.80;78.00;;;;;;6105948;23;20519;-87
2023/01/01 00:25:17;;;;;;;10.70;8.43;;;16.90;77.60;;;;;;6130273;23;20522;-86
2023/01/01 00:27:47;;;;;;;9.90;8.07;;;16.90;77.50;;;;;;6106545;23;20420;-86
2023/01/01 00:30:23;;;;;;;8.83;7.23;;;16.90;77.40;;;;;;6104429;23;20427;-86
2023/01/01 00:32:50;;;;;;;8.03;7.23;;;16.60;77.70;;;;;;6104148;23;21027;-87
2023/01/01 00:35:26;;;;;;;7.67;6.70;;;16.70;77.20;;;;;;6131564;23;20408;-85
2023/01/01 00:37:57;;;;;;;7.40;6.70;;;16.80;77.10;;;;;;6110838;23;20479;-87
2023/01/01 00:40:28;;;;;;;8.73;5.70;;;16.70;77.10;;;;;;6135214;23;20444;-86
2023/01/01 00:42:58;;;;;;;6.77;5.50;;;16.80;76.80;;;;;;6132476;23;20427;-88
2023/01/01 00:45:27;;;;;;;6.60;4.77;;;16.70;77.00;;;;;;6132599;23;21207;-86
2023/01/01 00:48:02;;;;;;;7.80;5.20;;;16.70;76.90;;;;;;6106671;23;20411;-85
2023/01/01 00:50:32;;;;;;;5.27;4.13;;;16.70;76.60;;;;;;6121807;23;20426;-84
2023/01/01 00:52:59;;;;;;;8.13;3.90;;;16.50;77.00;;;;;;6151857;23;20446;-84
2023/01/01 00:55:40;;;;;;;5.23;4.07;;;16.60;76.70;;;;;;6134937;23;20412;-85
2023/01/01 00:58:07;;;;;;;10.33;6.10;;;16.60;76.20;;;;;;6130816;23;20419;-86
2023/01/01 01:00:39;;;;;;;6.50;4.93;;;16.60;75.80;;;;;;6131288;23;20416;-86
2023/01/01 01:03:06;;;;;;;4.90;3.30;;;16.60;75.90;;;;;;6129991;23;20412;-87
2023/01/01 01:05:40;;;;;;;4.97;2.67;;;16.60;75.90;;;;;;6130097;23;20447;-87
2023/01/01 01:08:08;;;;;;;4.67;3.33;;;16.60;75.40;;;;;;6132527;23;20436;-85
2023/01/01 01:10:38;;;;;;;5.33;2.70;;;16.60;75.40;;;;;;6129359;23;20420;-87
2023/01/01 01:13:06;;;;;;;3.87;2.50;;;16.50;75.80;;;;;;6126403;23;20794;-86
2023/01/01 01:15:50;;;;;;;7.90;4.03;;;16.60;75.30;;;;;;6121934;23;20403;-86
2023/01/01 01:18:23;;;;;;;4.73;2.60;;;16.50;75.50;;;;;;6125535;23;20399;-85
2023/01/01 01:20:59;;;;;;;4.43;3.60;;;16.50;75.40;;;;;;6124914;23;20412;-86
2023/01/01 01:23:27;;;;;;;3.30;2.93;;;16.50;75.40;;;;;;6149110;23;20719;-85
2023/01/01 01:26:13;;;;;;;5.43;2.93;;;16.40;75.60;;;;;;6124686;23;20435;-85
2023/01/01 01:28:42;;;;;;;6.97;2.93;;;16.40;75.90;;;;;;6149441;23;20427;-86
2023/01/01 01:31:22;;;;;;;2.70;2.27;;;16.40;75.90;;;;;;6124617;23;20387;-85
2023/01/01 01:34:05;;;;;;;3.43;2.23;;;16.40;75.90;;;;;;6123338;23;20439;-85
2023/01/01 01:36:48;;;;;;;3.27;2.40;;;16.40;75.20;;;;;;6146805;23;20403;-87
2023/01/01 01:39:18;;;;;;;2.13;1.90;;;16.30;75.10;;;;;;6114580;23;20443;-86
2023/01/01 01:42:01;;;;;;;2.37;1.70;;;16.30;74.80;;;;;;6088870;23;20510;-83
2023/01/01 01:44:52;;;;;;;2.87;2.00;;;16.30;74.10;;;;;;6121916;23;20466;-86
2023/01/01 01:47:42;;;;;;;2.57;1.97;;;16.30;74.10;;;;;;6123833;23;20407;-85
2023/01/01 01:50:21;;;;;;;3.43;1.83;;;16.20;74.40;;;;;;6123759;23;20455;-85
2023/01/01 01:53:31;;;;;;;2.60;1.60;;;16.30;73.90;;;;;;6126972;23;20503;-85
2023/01/01 01:56:09;;;;;;;1.67;1.57;;;16.40;73.40;;;;;;6127608;23;20443;-86
2023/01/01 01:58:39;;;;;;;2.73;1.40;;;16.30;73.10;;;;;;6128688;23;20460;-87
2023/01/01 02:01:17;;;;;;;2.00;1.47;;;16.30;72.60;;;;;;6136237;23;20433;-87
2023/01/01 02:04:13;;;;;;;1.83;1.20;;;16.40;72.10;;;;;;6132655;23;20447;-85
2023/01/01 02:06:43;;;;;;;3.03;2.00;;;16.40;72.00;;;;;;6122384;23;20502;-85
2023/01/01 02:09:22;;;;;;;4.10;1.63;;;16.40;71.60;;;;;;6121779;23;20447;-86
2023/01/01 02:11:49;;;;;;;1.60;1.30;;;16.50;71.40;;;;;;6123352;23;20882;-84
2023/01/01 02:14:22;;;;;;;3.13;2.93;;;16.40;71.30;;;;;;6126030;23;20442;-85
2023/01/01 02:17:05;;;;;;;1.93;1.20;;;16.40;71.30;;;;;;6141581;23;20479;-86
2023/01/01 02:20:20;;;;;;;3.00;1.80;;;16.40;71.30;;;;;;6113330;23;20447;-87
2023/01/01 02:23:29;;;;;;;2.60;1.30;;;16.50;71.00;;;;;;6134677;23;20426;-86
2023/01/01 02:26:15;;;;;;;1.50;1.40;;;16.50;71.00;;;;;;6153700;23;20714;-87
2023/01/01 02:29:03;;;;;;;3.97;1.80;;;16.50;70.90;;;;;;6136657;23;20403;-86
2023/01/01 02:31:45;;;;;;;14.43;10.07;;;16.50;70.90;;;;;;6151699;23;20412;-84
2023/01/01 02:34:19;;;;;;;52.30;41.97;;;16.50;70.90;;;;;;6124326;23;20470;-85
2023/01/01 02:36:54;;;;;;;73.33;57.93;;;16.50;70.70;;;;;;6124821;23;20408;-85
2023/01/01 02:39:39;;;;;;;75.37;61.57;;;16.50;70.80;;;;;;6125344;23;20415;-84
2023/01/01 02:42:15;;;;;;;187.90;118.83;;;16.50;70.60;;;;;;6125777;23;20414;-84
2023/01/01 02:44:47;;;;;;;190.77;97.10;;;16.50;70.60;;;;;;6125720;23;20466;-85
2023/01/01 02:47:17;;;;;;;39.43;22.20;;;16.50;70.90;;;;;;6099279;23;20416;-84
2023/01/01 02:50:12;;;;;;;45.10;21.50;;;16.50;70.40;;;;;;6126603;23;20647;-86
2023/01/01 02:53:06;;;;;;;6.20;3.50;;;16.60;70.30;;;;;;6099703;23;20443;-85
2023/01/01 02:55:57;;;;;;;5.10;3.00;;;16.50;70.00;;;;;;6100517;23;20396;-86
2023/01/01 03:01:58;;;;;;;4.30;2.20;;;16.60;70.00;;;;;;6125631;23;20403;-85
2023/01/01 03:04:44;;;;;;;3.80;1.73;;;16.50;70.20;;;;;;6085514;23;20535;-85
2023/01/01 03:07:32;;;;;;;2.20;1.30;;;16.50;70.60;;;;;;6092107;23;20431;-86
2023/01/01 03:10:10;;;;;;;3.47;1.57;;;16.50;70.30;;;;;;6117600;23;20393;-86
2023/01/01 03:12:54;;;;;;;2.63;1.47;;;16.60;70.60;;;;;;6117511;23;20428;-85
2023/01/01 03:15:31;;;;;;;2.70;1.73;;;16.50;70.40;;;;;;6094632;23;20419;-86
2023/01/01 03:18:07;;;;;;;3.33;1.30;;;16.50;70.60;;;;;;6115856;23;20636;-85
2023/01/01 03:20:39;;;;;;;2.13;1.50;;;16.50;70.70;;;;;;6090605;23;20403;-87
2023/01/01 03:23:14;;;;;;;3.87;1.83;;;16.50;70.90;;;;;;6116439;23;20479;-87
2023/01/01 03:25:47;;;;;;;2.97;1.43;;;16.50;70.90;;;;;;6116584;23;20423;-86
2023/01/01 03:28:22;;;;;;;2.63;1.63;;;16.50;71.10;;;;;;6115223;23;20821;-86
2023/01/01 03:30:52;;;;;;;4.20;1.77;;;16.60;71.10;;;;;;6116711;23;20428;-86
2023/01/01 03:33:33;;;;;;;2.53;1.33;;;16.50;70.90;;;;;;6116502;23;20932;-85
2023/01/01 03:36:04;;;;;;;3.90;1.43;;;16.60;71.10;;;;;;6090501;23;20416;-85
2023/01/01 03:38:52;;;;;;;3.00;1.43;;;16.50;71.10;;;;;;6117023;23;20753;-86
2023/01/01 03:41:33;;;;;;;2.40;1.43;;;16.50;71.20;;;;;;6115512;23;20537;-86
2023/01/01 03:44:25;;;;;;;1.60;1.30;;;16.60;71.60;;;;;;6117342;23;20443;-84
2023/01/01 03:46:53;;;;;;;2.50;1.60;;;16.60;71.60;;;;;;6089998;23;20408;-85
2023/01/01 03:49:20;;;;;;;3.83;1.87;;;16.60;71.60;;;;;;6113675;23;20420;-86
2023/01/01 03:52:15;;;;;;;2.73;1.60;;;16.50;71.80;;;;;;6087656;23;20483;-86
2023/01/01 03:54:51;;;;;;;3.93;1.60;;;16.60;72.20;;;;;;6086065;23;20927;-85
2023/01/01 03:57:28;;;;;;;2.23;1.33;;;16.60;72.40;;;;;;6115309;23;20466;-85
2023/01/01 04:00:07;;;;;;;2.57;1.23;;;16.60;72.40;;;;;;6113393;23;20399;-85
2023/01/01 04:02:52;;;;;;;4.23;2.20;;;16.60;72.60;;;;;;6113062;23;20560;-84
2023/01/01 04:05:21;;;;;;;2.70;1.73;;;16.60;72.70;;;;;;6089818;23;20423;-86
2023/01/01 04:07:50;;;;;;;3.13;1.90;;;16.60;72.90;;;;;;6116829;23;21406;-87
2023/01/01 04:10:16;;;;;;;5.43;1.30;;;16.70;73.10;;;;;;6091523;23;20388;-86
2023/01/01 04:12:45;;;;;;;1.70;1.60;;;16.60;73.10;;;;;;6118260;23;20443;-87
2023/01/01 04:15:12;;;;;;;2.10;1.20;;;16.70;73.30;;;;;;6106404;23;20432;-88
2023/01/01 04:17:39;;;;;;;1.27;1.17;;;16.60;73.20;;;;;;6138084;23;20407;-86
2023/01/01 04:20:07;;;;;;;1.43;1.23;;;16.60;73.60;;;;;;6138345;23;20447;-87
2023/01/01 04:22:34;;;;;;;1.80;1.23;;;16.60;73.60;;;;;;6132972;23;20451;-84
2023/01/01 04:25:01;;;;;;;2.10;1.50;;;16.60;73.70;;;;;;6117667;23;20439;-84
2023/01/01 04:27:28;;;;;;;2.53;1.27;;;16.60;73.80;;;;;;6089582;23;20474;-85
2023/01/01 04:29:55;;;;;;;3.10;2.57;;;16.70;74.00;;;;;;6117095;23;20439;-86
2023/01/01 04:32:21;;;;;;;3.17;1.50;;;16.60;74.00;;;;;;6114492;23;20474;-84
2023/01/01 04:34:48;;;;;;;2.30;1.40;;;16.70;73.90;;;;;;6115296;23;20431;-85
2023/01/01 04:37:21;;;;;;;5.50;1.73;;;16.60;74.10;;;;;;6114170;23;20426;-85
2023/01/01 04:39:54;;;;;;;3.67;1.70;;;16.60;74.30;;;;;;6118358;23;20517;-85
2023/01/01 04:42:20;;;;;;;3.80;1.90;;;16.60;74.80;;;;;;6091646;23;20392;-84
2023/01/01 04:44:47;;;;;;;4.83;1.60;;;16.60;74.80;;;;;;6117076;23;20435;-85
2023/01/01 04:47:14;;;;;;;4.77;2.37;;;16.70;75.10;;;;;;6090780;23;20884;-85
2023/01/01 04:49:41;;;;;;;3.00;1.50;;;16.60;74.90;;;;;;6090988;23;20443;-86
2023/01/01 04:52:08;;;;;;;1.60;1.20;;;16.60;75.40;;;;;;6117022;23;20908;-84
2023/01/01 04:54:36;;;;;;;2.70;1.60;;;16.60;75.60;;;;;;6117641;23;20868;-84
2023/01/01 04:57:03;;;;;;;3.30;1.67;;;16.60;75.90;;;;;;6116419;23;20439;-86
2023/01/01 04:59:30;;;;;;;1.77;1.30;;;16.50;75.90;;;;;;6091248;23;20443;-86
2023/01/01 05:01:59;;;;;;;1.73;1.13;;;16.50;76.20;;;;;;6120204;23;20482;-84
2023/01/01 05:04:26;;;;;;;1.57;1.47;;;16.60;76.60;;;;;;6094705;23;20440;-86
2023/01/01 05:06:53;;;;;;;2.90;1.60;;;16.50;76.60;;;;;;6132189;23;20418;-85
2023/01/01 05:09:22;;;;;;;2.50;1.93;;;16.50;77.10;;;;;;6115052;23;20407;-87
2023/01/01 05:11:49;;;;;;;1.80;1.50;;;16.50;77.20;;;;;;6127882;23;20404;-86
2023/01/01 05:14:16;;;;;;;4.47;1.47;;;16.50;77.60;;;;;;6120626;23;20448;-86
2023/01/01 05:16:43;;;;;;;1.70;1.60;;;16.40;77.70;;;;;;6124076;23;20411;-84
2023/01/01 05:19:12;;;;;;;3.20;1.70;;;16.40;78.00;;;;;;6093955;23;20429;-85
2023/01/01 05:21:40;;;;;;;3.40;1.90;;;16.30;78.20;;;;;;6094879;23;20408;-85
2023/01/01 05:24:09;;;;;;;2.33;2.13;;;16.40;78.30;;;;;;6093319;23;20446;-85
2023/01/01 05:26:39;;;;;;;2.53;1.90;;;16.40;78.40;;;;;;6094520;23;20796;-82
2023/01/01 05:29:06;;;;;;;1.60;1.50;;;16.40;78.70;;;;;;6118921;23;20381;-85
2023/01/01 05:31:41;;;;;;;3.90;1.33;;;16.40;78.80;;;;;;6119196;23;20427;-83
2023/01/01 05:34:08;;;;;;;2.30;1.23;;;16.40;79.00;;;;;;6094600;23;20471;-84
2023/01/01 05:36:37;;;;;;;2.40;1.30;;;16.30;79.30;;;;;;6119031;23;20384;-84
2023/01/01 05:39:05;;;;;;;5.17;2.07;;;16.40;79.50;;;;;;6093074;23;20172;-84
2023/01/01 05:41:35;;;;;;;1.43;1.33;;;16.30;80.00;;;;;;6113980;23;20443;-85
2023/01/01 05:44:04;;;;;;;3.37;1.90;;;16.30;80.10;;;;;;6119264;23;20443;-84
2023/01/01 05:46:31;;;;;;;4.43;1.70;;;16.20;80.40;;;;;;6113400;23;20423;-83
2023/01/01 05:48:58;;;;;;;1.80;1.70;;;16.30;80.60;;;;;;6114755;23;20419;-83
2023/01/01 05:51:27;;;;;;;3.40;2.10;;;16.30;80.80;;;;;;6113899;23;20419;-85
2023/01/01 05:53:54;;;;;;;1.80;1.70;;;16.20;81.30;;;;;;6113240;23;20455;-86
2023/01/01 05:56:22;;;;;;;5.73;1.67;;;16.20;81.60;;;;;;6106886;23;20470;-83
2023/01/01 05:58:48;;;;;;;2.23;1.50;;;16.30;81.70;;;;;;6147949;23;20410;-85
2023/01/01 06:01:24;;;;;;;5.67;2.23;;;16.20;81.80;;;;;;6147729;23;20641;-87
2023/01/01 06:03:52;;;;;;;3.27;1.60;;;16.20;82.10;;;;;;6161258;23;20431;-83
2023/01/01 06:06:22;;;;;;;1.90;1.70;;;16.20;82.50;;;;;;6143287;23;20411;-85
2023/01/01 06:08:55;;;;;;;4.73;1.77;;;16.20;82.80;;;;;;6143741;23;20419;-86
2023/01/01 06:11:22;;;;;;;2.00;1.50;;;16.20;82.90;;;;;;6155967;23;20388;-88
2023/01/01 06:13:52;;;;;;;2.60;1.40;;;16.30;82.90;;;;;;6169107;23;20494;-87
2023/01/01 06:16:19;;;;;;;4.37;2.10;;;16.30;83.10;;;;;;6171859;23;20395;-87
2023/01/01 06:18:45;;;;;;;3.30;1.77;;;16.20;83.50;;;;;;6172054;23;20473;-88
2023/01/01 06:21:18;;;;;;;2.23;1.67;;;16.20;83.60;;;;;;6146238;23;20482;-86
2023/01/01 06:23:45;;;;;;;2.93;1.90;;;16.20;84.10;;;;;;6141244;23;20498;-85
2023/01/01 06:26:15;;;;;;;3.00;1.60;;;16.10;84.70;;;;;;6167778;23;20415;-84
2023/01/01 06:28:43;;;;;;;2.70;1.60;;;16.10;85.20;;;;;;6146929;23;20498;-81
2023/01/01 06:31:14;;;;;;;5.93;2.10;;;16.20;84.80;;;;;;6120952;23;20414;-84
2023/01/01 06:33:42;;;;;;;1.97;1.50;;;16.20;84.90;;;;;;6145766;23;20442;-83
2023/01/01 06:36:11;;;;;;;1.93;1.27;;;16.10;84.90;;;;;;6145162;23;20728;-84
2023/01/01 06:38:41;;;;;;;4.03;1.90;;;16.20;85.00;;;;;;6118970;23;20514;-86
2023/01/01 06:41:13;;;;;;;2.90;1.80;;;16.20;85.00;;;;;;6118225;23;20509;-85
2023/01/01 06:43:41;;;;;;;3.40;2.50;;;16.20;85.20;;;;;;6145852;23;20426;-86
2023/01/01 06:46:13;;;;;;;6.13;1.60;;;16.20;85.40;;;;;;6145803;23;20514;-86
2023/01/01 06:49:05;;;;;;;5.20;1.90;;;16.20;85.80;;;;;;6145058;23;20430;-84
2023/01/01 06:51:40;;;;;;;3.83;2.30;;;16.10;86.40;;;;;;6118286;23;20409;-86
2023/01/01 06:54:08;;;;;;;3.10;1.50;;;16.00;86.70;;;;;;6143241;23;20457;-86
2023/01/01 06:56:35;;;;;;;4.07;1.67;;;16.10;86.80;;;;;;6141913;23;21257;-86
2023/01/01 06:59:03;;;;;;;2.70;1.80;;;16.10;86.60;;;;;;6118238;23;20722;-86
2023/01/01 07:01:31;;;;;;;4.33;2.30;;;16.00;87.40;;;;;;6118126;23;20415;-85
2023/01/01 07:04:01;;;;;;;2.37;1.60;;;16.00;87.60;;;;;;6117611;23;20469;-84
2023/01/01 07:06:30;;;;;;;2.07;1.60;;;16.10;87.70;;;;;;6119187;23;20470;-86
2023/01/01 07:08:57;;;;;;;2.43;1.70;;;16.00;87.80;;;;;;6144887;23;20766;-86
2023/01/01 07:11:25;;;;;;;1.93;1.70;;;16.10;88.00;;;;;;6118833;23;20417;-86
2023/01/01 07:13:52;;;;;;;3.37;2.47;;;16.10;87.70;;;;;;6117850;23;20449;-84
2023/01/01 07:16:20;;;;;;;2.07;1.87;;;16.00;88.30;;;;;;6118147;23;20407;-85
2023/01/01 07:18:49;;;;;;;4.50;2.07;;;16.00;88.60;;;;;;6144473;23;20419;-86
2023/01/01 07:21:42;;;;;;;2.10;2.00;;;16.00;88.60;;;;;;6143682;23;20437;-85
2023/01/01 07:24:11;;;;;;;2.57;1.70;;;16.10;88.60;;;;;;6079770;23;20434;-87
2023/01/01 07:26:38;;;;;;;4.40;1.87;;;16.10;88.80;;;;;;6143480;23;20456;-87
2023/01/01 07:29:07;;;;;;;2.97;1.77;;;16.20;89.00;;;;;;6118531;23;20505;-85
2023/01/01 07:31:39;;;;;;;2.37;1.80;;;16.20;88.80;;;;;;6144542;23;20457;-84
2023/01/01 07:34:09;;;;;;;2.80;1.67;;;16.20;88.70;;;;;;6143235;23;20910;-86
2023/01/01 07:36:37;;;;;;;1.83;1.63;;;16.30;88.80;;;;;;6118910;23;20454;-86
2023/01/01 07:39:03;;;;;;;4.90;1.93;;;16.20;88.80;;;;;;6118372;23;20434;-87
2023/01/01 07:41:30;;;;;;;2.17;1.80;;;16.30;89.00;;;;;;6117716;23;20410;-85
2023/01/01 07:43:57;;;;;;;2.10;1.83;;;16.30;88.80;;;;;;6144467;23;20434;-85
2023/01/01 07:46:24;;;;;;;5.60;1.90;;;16.20;88.80;;;;;;6143357;23;20419;-85
2023/01/01 07:48:52;;;;;;;3.10;1.80;;;16.00;89.30;;;;;;6119537;23;20425;-85
2023/01/01 07:51:19;;;;;;;3.90;1.60;;;16.20;89.90;;;;;;6143288;23;20409;-84
2023/01/01 07:53:48;;;;;;;3.03;1.60;;;16.30;88.90;;;;;;6144033;23;21029;-86
2023/01/01 07:56:15;;;;;;;4.27;1.63;;;16.30;89.00;;;;;;6144701;23;20521;-84
2023/01/01 07:58:42;;;;;;;4.50;1.87;;;16.20;89.40;;;;;;6154829;23;20417;-86
2023/01/01 08:01:10;;;;;;;4.20;1.60;;;16.20;89.70;;;;;;6141515;23;20785;-87
2023/01/01 08:03:38;;;;;;;2.77;1.50;;;15.90;90.30;;;;;;6127560;23;20435;-85
2023/01/01 08:06:07;;;;;;;6.03;2.00;;;16.30;90.20;;;;;;6149892;23;20477;-86
2023/01/01 08:08:33;;;;;;;3.43;1.77;;;16.30;89.80;;;;;;6124420;23;20505;-85
2023/01/01 08:11:01;;;;;;;1.73;1.60;;;16.40;89.80;;;;;;6120470;23;20420;-86
2023/01/01 08:13:29;;;;;;;2.40;1.60;;;16.40;89.80;;;;;;6144044;23;20908;-85
2023/01/01 08:15:57;;;;;;;4.47;1.70;;;16.40;89.70;;;;;;6115606;23;20534;-85
2023/01/01 08:18:24;;;;;;;2.40;1.60;;;16.30;90.10;;;;;;6141826;23;20554;-85
2023/01/01 08:20:52;;;;;;;2.80;1.30;;;16.10;90.30;;;;;;6141404;23;20419;-85
2023/01/01 08:23:18;;;;;;;6.40;1.60;;;15.90;90.80;;;;;;6115249;23;20443;-86
2023/01/01 08:25:45;;;;;;;2.47;1.43;;;15.90;91.10;;;;;;6141643;23;20411;-85
2023/01/01 08:28:12;;;;;;;7.53;1.90;;;16.00;91.00;;;;;;6143201;23;20415;-87
2023/01/01 08:30:39;;;;;;;5.10;1.60;;;15.90;91.40;;;;;;6150074;23;20522;-85
2023/01/01 08:33:06;;;;;;;7.50;2.00;;;16.30;91.20;;;;;;6146272;23;20414;-84
2023/01/01 08:35:36;;;;;;;2.83;1.70;;;16.20;91.00;;;;;;6151059;23;20485;-88
2023/01/01 08:38:03;;;;;;;4.70;1.57;;;16.40;91.00;;;;;;6136646;23;20427;-87
2023/01/01 08:40:30;;;;;;;3.33;1.80;;;16.30;91.10;;;;;;6158292;23;20406;-84
2023/01/01 08:42:56;;;;;;;2.83;1.73;;;16.30;91.20;;;;;;6160046;23;20406;-86
2023/01/01 08:45:23;;;;;;;7.03;2.03;;;16.30;91.20;;;;;;6159467;23;20430;-85
2023/01/01 08:47:50;;;;;;;4.47;1.70;;;15.90;91.60;;;;;;6158084;23;20410;-84
2023/01/01 08:50:17;;;;;;;2.50;2.13;;;15.90;92.30;;;;;;6150344;23;20407;-85
2023/01/01 08:52:46;;;;;;;7.50;2.40;;;16.10;92.10;;;;;;6146525;23;20455;-85
2023/01/01 08:55:13;;;;;;;2.20;1.77;;;16.30;92.00;;;;;;6145265;23;20947;-86
2023/01/01 08:57:40;;;;;;;2.27;1.73;;;16.20;92.00;;;;;;6117524;23;20458;-87
2023/01/01 09:00:09;;;;;;;3.23;1.70;;;16.20;92.20;;;;;;6118127;23;20486;-87
2023/01/01 09:02:35;;;;;;;4.77;1.83;;;16.20;92.30;;;;;;6144769;23;20403;-84
2023/01/01 09:05:02;;;;;;;3.60;1.77;;;16.10;92.40;;;;;;6119137;23;20774;-88
2023/01/01 09:07:29;;;;;;;2.43;1.80;;;15.80;93.00;;;;;;6118122;23;20409;-84
2023/01/01 09:09:56;;;;;;;5.50;2.07;;;15.80;93.80;;;;;;6140662;23;20507;-85
2023/01/01 09:12:23;;;;;;;3.37;1.83;;;15.70;93.60;;;;;;6118972;23;20411;-88
2023/01/01 09:14:49;;;;;;;4.27;1.60;;;15.60;94.00;;;;;;6144746;23;20663;-84
2023/01/01 09:17:16;;;;;;;5.13;2.33;;;16.00;93.90;;;;;;6143949;23;20395;-85
2023/01/01 09:19:43;;;;;;;2.63;2.03;;;16.10;93.60;;;;;;6145635;23;20403;-86
2023/01/01 09:22:11;;;;;;;4.13;1.70;;;15.90;93.50;;;;;;6147216;23;20406;-84
2023/01/01 09:24:38;;;;;;;5.00;1.70;;;15.90;93.80;;;;;;6119907;23;20445;-86
2023/01/01 09:27:07;;;;;;;4.40;1.90;;;16.20;93.40;;;;;;6143054;23;20417;-87
2023/01/01 09:29:34;;;;;;;1.70;1.60;;;16.10;93.30;;;;;;6118035;23;20415;-86
2023/01/01 09:32:00;;;;;;;6.60;1.70;;;16.10;93.50;;;;;;6118387;23;20415;-85
2023/01/01 09:34:27;;;;;;;4.50;2.03;;;16.10;93.40;;;;;;6144489;23;20454;-87
2023/01/01 09:36:54;;;;;;;2.63;1.47;;;16.20;93.50;;;;;;6146258;23;20407;-85
2023/01/01 09:39:21;;;;;;;4.83;1.87;;;16.10;93.40;;;;;;6145474;23;20421;-84
2023/01/01 09:42:13;;;;;;;4.37;1.40;;;16.10;93.60;;;;;;6118815;23;20449;-86
2023/01/01 09:44:50;;;;;;;3.93;1.60;;;16.00;93.70;;;;;;6144645;23;20783;-85
2023/01/01 09:47:23;;;;;;;2.27;1.07;;;16.10;93.60;;;;;;6119483;23;20493;-86
2023/01/01 09:49:53;;;;;;;2.47;1.53;;;16.20;93.60;;;;;;6117380;23;20395;-85
2023/01/01 09:52:20;;;;;;;4.77;1.87;;;16.00;93.60;;;;;;6145092;23;20422;-85
2023/01/01 09:55:02;;;;;;;2.13;1.40;;;16.10;93.50;;;;;;6145649;23;20446;-86
2023/01/01 09:57:30;;;;;;;8.93;2.33;;;16.10;93.30;;;;;;6145235;23;20468;-85
2023/01/01 09:59:58;;;;;;;1.40;1.27;;;16.10;93.40;;;;;;6119353;23;20402;-87
2023/01/01 10:02:47;;;;;;;2.57;1.50;;;16.00;93.50;;;;;;6120022;23;20422;-83
2023/01/01 10:05:24;;;;;;;1.30;1.20;;;16.10;93.50;;;;;;6147617;23;20492;-86
2023/01/01 10:08:15;;;;;;;3.50;1.47;;;16.20;93.40;;;;;;6149615;23;20533;-85
2023/01/01 10:11:08;;;;;;;3.90;1.60;;;16.20;93.20;;;;;;6128057;23;20510;-86
2023/01/01 10:13:41;;;;;;;3.77;1.80;;;16.20;93.20;;;;;;6092149;23;20431;-87
2023/01/01 10:16:35;;;;;;;3.07;1.53;;;16.30;93.20;;;;;;6122947;23;20411;-84
2023/01/01 10:19:36;;;;;;;2.07;1.30;;;16.30;93.20;;;;;;6113611;23;20418;-86
2023/01/01 10:22:14;;;;;;;3.17;1.40;;;16.30;93.10;;;;;;6113414;23;21099;-84
2023/01/01 10:24:45;;;;;;;3.90;1.50;;;16.30;93.00;;;;;;6124063;23;20439;-84
2023/01/01 10:27:41;;;;;;;3.67;1.50;;;16.30;93.20;;;;;;6138571;23;20395;-86
2023/01/01 10:30:13;;;;;;;2.97;1.40;;;16.30;93.10;;;;;;6139368;23;20442;-83
2023/01/01 10:32:42;;;;;;;2.77;1.40;;;16.40;93.10;;;;;;6166557;23;20422;-85
2023/01/01 10:35:14;;;;;;;3.80;1.53;;;16.40;93.10;;;;;;6147068;23;20959;-87
2023/01/01 10:37:43;;;;;;;4.30;1.80;;;16.40;93.20;;;;;;6122667;23;20391;-87
2023/01/01 10:40:19;;;;;;;5.20;1.53;;;16.30;93.30;;;;;;6122700;23;20403;-86
2023/01/01 10:42:54;;;;;;;4.93;1.27;;;16.30;93.40;;;;;;6154924;23;20431;-87
2023/01/01 10:45:37;;;;;;;2.50;1.40;;;16.30;93.50;;;;;;6142443;23;20486;-85
2023/01/01 10:48:23;;;;;;;3.93;1.70;;;16.20;93.50;;;;;;6141549;23;20454;-85
2023/01/01 10:51:05;;;;;;;1.53;1.40;;;16.20;93.50;;;;;;6166102;23;20689;-84
2023/01/01 10:53:49;;;;;;;4.47;2.27;;;16.20;93.70;;;;;;6135215;23;20426;-86
2023/01/01 10:56:26;;;;;;;3.90;1.80;;;16.20;93.70;;;;;;6122357;23;20506;-84
2023/01/01 10:58:58;;;;;;;2.20;1.53;;;16.30;93.80;;;;;;6122883;23;20414;-85
2023/01/01 11:01:28;;;;;;;2.60;1.50;;;16.30;93.70;;;;;;6147661;23;20810;-86
2023/01/01 11:03:59;;;;;;;4.97;2.23;;;16.30;93.60;;;;;;6147839;23;20946;-85
2023/01/01 11:06:38;;;;;;;3.80;2.07;;;16.30;93.60;;;;;;6120619;23;20410;-86
2023/01/01 11:09:25;;;;;;;2.00;1.77;;;16.30;93.60;;;;;;6122051;23;20422;-85
2023/01/01 11:12:02;;;;;;;4.10;1.60;;;16.30;93.70;;;;;;6146074;23;21006;-86
2023/01/01 11:14:57;;;;;;;5.20;1.60;;;16.40;93.50;;;;;;6120685;23;20449;-86
2023/01/01 11:17:37;;;;;;;3.50;1.37;;;16.30;93.60;;;;;;6120773;23;20887;-85
2023/01/01 11:20:19;;;;;;;4.20;1.50;;;16.20;93.50;;;;;;6120643;23;20477;-86
2023/01/01 11:22:56;;;;;;;2.80;1.00;;;15.90;93.90;;;;;;6119980;23;20743;-86
2023/01/01 11:25:35;;;;;;;2.83;2.00;;;15.70;94.40;;;;;;6119561;23;20470;-86
2023/01/01 11:28:15;;;;;;;3.73;1.70;;;16.00;94.40;;;;;;6120829;23;20423;-85
2023/01/01 11:31:04;;;;;;;1.80;1.70;;;15.80;94.50;;;;;;6146400;23;20415;-86
2023/01/01 11:33:57;;;;;;;2.57;1.40;;;16.10;94.10;;;;;;6144807;23;20438;-85
2023/01/01 11:36:31;;;;;;;2.23;1.20;;;16.30;93.50;;;;;;6118495;23;20419;-85
2023/01/01 11:39:15;;;;;;;7.27;2.00;;;16.30;93.30;;;;;;6117362;23;20399;-85
2023/01/01 11:42:07;;;;;;;2.83;1.70;;;16.40;93.30;;;;;;6145669;23;20399;-84
2023/01/01 11:44:57;;;;;;;3.43;1.60;;;16.00;93.70;;;;;;6135181;23;20450;-87
2023/01/01 11:47:37;;;;;;;4.10;2.07;;;16.00;93.80;;;;;;6120810;23;20544;-86
2023/01/01 11:50:15;;;;;;;2.73;1.37;;;16.20;93.70;;;;;;6120304;23;20433;-85
2023/01/01 11:52:46;;;;;;;5.10;1.30;;;16.40;93.30;;;;;;6147338;23;20422;-86
2023/01/01 11:55:36;;;;;;;1.93;1.33;;;16.40;93.10;;;;;;6147797;23;20443;-83
2023/01/01 11:58:34;;;;;;;2.30;1.70;;;16.20;93.40;;;;;;6119875;23;20387;-85
2023/01/01 12:01:37;;;;;;;3.40;1.40;;;16.20;93.50;;;;;;6124856;23;20462;-85
2023/01/01 12:04:40;;;;;;;4.77;1.80;;;16.10;93.20;;;;;;6148066;23;21144;-86
2023/01/01 12:07:24;;;;;;;1.83;1.23;;;16.40;93.00;;;;;;6124827;23;20424;-84
2023/01/01 12:10:01;;;;;;;7.50;1.83;;;16.40;92.80;;;;;;6106984;23;20723;-84
2023/01/01 12:12:45;;;;;;;2.80;1.80;;;16.40;92.70;;;;;;6130445;23;20419;-86
2023/01/01 12:15:45;;;;;;;6.03;1.33;;;16.20;92.80;;;;;;6128539;23;20454;-85
2023/01/01 12:18:46;;;;;;;3.47;1.67;;;16.20;93.30;;;;;;6130427;23;20418;-86
2023/01/01 12:21:23;;;;;;;4.80;1.63;;;16.40;92.90;;;;;;6128645;23;20410;-84
2023/01/01 12:24:00;;;;;;;3.80;1.50;;;16.30;92.80;;;;;;6106461;23;21081;-84
2023/01/01 12:27:00;;;;;;;4.23;1.87;;;16.30;92.60;;;;;;6167590;23;20398;-87
2023/01/01 12:29:53;;;;;;;5.40;1.70;;;16.30;92.70;;;;;;6152200;23;20403;-87
2023/01/01 12:33:00;;;;;;;3.87;1.60;;;16.40;92.40;;;;;;6148464;23;20466;-85
2023/01/01 12:36:01;;;;;;;2.93;1.27;;;16.40;92.10;;;;;;6135200;23;20509;-86
2023/01/01 12:38:41;;;;;;;2.63;1.53;;;16.40;92.00;;;;;;6150033;23;20411;-87
2023/01/01 12:41:32;;;;;;;3.33;1.73;;;16.30;92.00;;;;;;6174214;23;20427;-84
2023/01/01 12:44:25;;;;;;;2.80;1.40;;;16.30;92.30;;;;;;6130617;23;20427;-85
2023/01/01 12:47:14;;;;;;;4.63;1.80;;;16.30;92.20;;;;;;6154334;23;20402;-84
2023/01/01 12:49:58;;;;;;;3.30;1.57;;;16.40;91.90;;;;;;6129593;23;20462;-84
2023/01/01 12:52:45;;;;;;;3.47;1.50;;;16.50;91.70;;;;;;6153843;23;20399;-84
2023/01/01 12:55:52;;;;;;;4.73;1.87;;;16.50;91.50;;;;;;6128450;23;20453;-86
2023/01/01 12:58:35;;;;;;;4.20;1.50;;;16.40;91.40;;;;;;6129663;23;20442;-84
2023/01/01 13:01:23;;;;;;;4.97;2.20;;;16.40;91.50;;;;;;6126805;23;20468;-86
2023/01/01 13:04:22;;;;;;;4.40;1.80;;;16.40;91.60;;;;;;6136770;23;20434;-87
2023/01/01 13:07:14;;;;;;;6.23;1.47;;;16.40;91.30;;;;;;6120091;23;20410;-85
2023/01/01 13:10:22;;;;;;;3.73;1.53;;;16.50;91.10;;;;;;6155735;23;20491;-84
2023/01/01 13:12:55;;;;;;;2.00;1.80;;;16.40;90.80;;;;;;6131101;23;20414;-87
2023/01/01 13:15:41;;;;;;;2.70;1.53;;;16.40;90.80;;;;;;6131936;23;20478;-86
2023/01/01 13:18:21;;;;;;;2.67;1.47;;;16.40;90.80;;;;;;6156252;23;20482;-84
2023/01/01 13:21:01;;;;;;;1.30;1.20;;;16.40;90.50;;;;;;6127070;23;20410;-86
2023/01/01 13:23:37;;;;;;;3.67;2.10;;;16.40;90.50;;;;;;6156758;23;20434;-85
2023/01/01 13:26:37;;;;;;;2.70;1.40;;;16.40;90.90;;;;;;6135354;23;20422;-86
2023/01/01 13:29:18;;;;;;;4.97;1.60;;;16.50;90.40;;;;;;6130766;23;20422;-84
2023/01/01 13:31:50;;;;;;;1.90;1.30;;;16.50;90.30;;;;;;6164045;23;21269;-85
2023/01/01 13:34:29;;;;;;;3.67;1.60;;;16.40;90.50;;;;;;6135547;23;20449;-85